sensor_id;sensor_type;location;lat;lon;timestamp;temperature;humidity
3709;DHT22;1870;53.996;10.784;2023-07-16T00:01:44;21.30;99.90
3709;DHT22;1870;53.996;10.784;2023-07-16T00:04:09;21.30;99.90
3709;DHT22;1870;53.996;10.784;2023-07-16T00:06:35;21.30;99.90
3709;DHT22;1870;53.996;10.784;2023-07-16T00:09:00;21.30;99.90
3709;DHT22;1870;53.996;10.784;2023-07-16T00:11:26;21.30;99.90
3709;DHT22;1870;53.996;10.784;2023-07-16T00:13:51;21.30;99.90
3709;DHT22;1870;53.996;10.784;2023-07-16T00:16:17;21.30;99.90
3709;DHT22;1870;53.996;10.784;2023-07-16T00:18:44;21.30;99.90
3709;DHT22;1870;53.996;10.784;2023-07-16T00:21:10;21.50;99.90
3709;DHT22;1870;53.996;10.784;2023-07-16T00:23:35;21.30;99.90
3709;DHT22;1870;53.996;10.784;2023-07-16T00:26:01;21.30;99.90
3709;DHT22;1870;53.996;10.784;2023-07-16T00:28:27;21.20;99.90
3709;DHT22;1870;53.996;10.784;2023-07-16T00:30:52;21.30;99.90
3709;DHT22;1870;53.996;10.784;2023-07-16T00:33:18;21.20;99.90
3709;DHT22;1870;53.996;10.784;2023-07-16T00:35:47;21.10;99.90
3709;DHT22;1870;53.996;10.784;2023-07-16T00:38:13;21.00;99.90
3709;DHT22;1870;53.996;10.784;2023-07-16T00:40:39;21.00;99.90
3709;DHT22;1870;53.996;10.784;2023-07-16T00:43:04;20.90;99.90
3709;DHT22;1870;53.996;10.784;2023-07-16T00:45:30;20.90;99.90
3709;DHT22;1870;53.996;10.784;2023-07-16T00:47:56;21.00;99.90
3709;DHT22;1870;53.996;10.784;2023-07-16T00:50:21;21.10;99.90
3709;DHT22;1870;53.996;10.784;2023-07-16T00:52:47;21.00;99.90
3709;DHT22;1870;53.996;10.784;2023-07-16T00:55:13;21.00;99.90
3709;DHT22;1870;53.996;10.784;2023-07-16T00:57:38;21.00;99.90
3709;DHT22;1870;53.996;10.784;2023-07-16T01:00:04;21.20;99.90
3709;DHT22;1870;53.996;10.784;2023-07-16T01:02:30;21.00;99.90
3709;DHT22;1870;53.996;10.784;2023-07-16T01:04:56;21.00;99.90
3709;DHT22;1870;53.996;10.784;2023-07-16T01:07:21;21.20;99.90
3709;DHT22;1870;53.996;10.784;2023-07-16T01:09:49;21.20;99.90
3709;DHT22;1870;53.996;10.784;2023-07-16T01:12:14;21.20;99.90
3709;DHT22;1870;53.996;10.784;2023-07-16T01:14:40;21.10;99.90
3709;DHT22;1870;53.996;10.784;2023-07-16T01:17:06;21.10;99.90
3709;DHT22;1870;53.996;10.784;2023-07-16T01:19:32;20.90;99.90
3709;DHT22;1870;53.996;10.784;2023-07-16T01:22:15;20.80;99.90
3709;DHT22;1870;53.996;10.784;2023-07-16T01:24:59;20.90;99.90
3709;DHT22;1870;53.996;10.784;2023-07-16T01:29:58;20.90;99.90
3709;DHT22;1870;53.996;10.784;2023-07-16T01:32:26;21.00;99.90
3709;DHT22;1870;53.996;10.784;2023-07-16T01:34:53;21.00;99.90
3709;DHT22;1870;53.996;10.784;2023-07-16T01:37:19;21.00;99.90
3709;DHT22;1870;53.996;10.784;2023-07-16T01:39:44;21.20;99.90
3709;DHT22;1870;53.996;10.784;2023-07-16T01:42:10;21.20;99.90
3709;DHT22;1870;53.996;10.784;2023-07-16T01:44:36;21.20;99.90
3709;DHT22;1870;53.996;10.784;2023-07-16T01:47:09;21.20;99.90
3709;DHT22;1870;53.996;10.784;2023-07-16T01:49:35;21.10;99.90
3709;DHT22;1870;53.996;10.784;2023-07-16T01:52:01;21.10;99.90
3709;DHT22;1870;53.996;10.784;2023-07-16T01:54:27;21.10;99.90
3709;DHT22;1870;53.996;10.784;2023-07-16T01:56:52;21.10;99.90
3709;DHT22;1870;53.996;10.784;2023-07-16T01:59:18;20.90;99.90
3709;DHT22;1870;53.996;10.784;2023-07-16T02:01:43;20.70;99.90
3709;DHT22;1870;53.996;10.784;2023-07-16T02:04:09;20.80;99.90
3709;DHT22;1870;53.996;10.784;2023-07-16T02:06:34;20.80;99.90
3709;DHT22;1870;53.996;10.784;2023-07-16T02:09:00;20.80;99.90
3709;DHT22;1870;53.996;10.784;2023-07-16T02:11:25;20.90;99.90
3709;DHT22;1870;53.996;10.784;2023-07-16T02:13:51;20.90;99.90
3709;DHT22;1870;53.996;10.784;2023-07-16T02:16:16;21.00;99.90
3709;DHT22;1870;53.996;10.784;2023-07-16T02:18:42;20.80;99.90
3709;DHT22;1870;53.996;10.784;2023-07-16T02:21:07;20.90;99.90
3709;DHT22;1870;53.996;10.784;2023-07-16T02:23:33;20.90;99.90
3709;DHT22;1870;53.996;10.784;2023-07-16T02:25:58;21.00;99.90
3709;DHT22;1870;53.996;10.784;2023-07-16T02:28:24;21.00;99.90
3709;DHT22;1870;53.996;10.784;2023-07-16T02:30:49;21.10;99.90
3709;DHT22;1870;53.996;10.784;2023-07-16T02:33:15;21.00;99.90
3709;DHT22;1870;53.996;10.784;2023-07-16T02:35:45;21.10;99.90
3709;DHT22;1870;53.996;10.784;2023-07-16T02:38:11;21.00;99.90
3709;DHT22;1870;53.996;10.784;2023-07-16T02:40:36;20.90;99.90
3709;DHT22;1870;53.996;10.784;2023-07-16T02:43:07;20.90;99.90
3709;DHT22;1870;53.996;10.784;2023-07-16T02:45:33;20.80;99.90
3709;DHT22;1870;53.996;10.784;2023-07-16T02:47:58;20.90;99.90
3709;DHT22;1870;53.996;10.784;2023-07-16T02:50:24;20.80;99.90
3709;DHT22;1870;53.996;10.784;2023-07-16T02:52:49;20.90;99.90
3709;DHT22;1870;53.996;10.784;2023-07-16T02:55:15;20.80;99.90
3709;DHT22;1870;53.996;10.784;2023-07-16T02:57:40;20.90;99.90
3709;DHT22;1870;53.996;10.784;2023-07-16T03:00:06;20.90;99.90
3709;DHT22;1870;53.996;10.784;2023-07-16T03:02:31;20.80;99.90
3709;DHT22;1870;53.996;10.784;2023-07-16T03:04:58;20.80;99.90
3709;DHT22;1870;53.996;10.784;2023-07-16T03:07:23;20.80;99.90
3709;DHT22;1870;53.996;10.784;2023-07-16T03:09:49;20.70;99.90
3709;DHT22;1870;53.996;10.784;2023-07-16T03:12:14;20.70;99.90
3709;DHT22;1870;53.996;10.784;2023-07-16T03:14:40;20.60;99.90
3709;DHT22;1870;53.996;10.784;2023-07-16T03:17:05;20.60;99.90
3709;DHT22;1870;53.996;10.784;2023-07-16T03:19:32;20.60;99.90
3709;DHT22;1870;53.996;10.784;2023-07-16T03:21:57;20.30;99.90
3709;DHT22;1870;53.996;10.784;2023-07-16T03:24:23;20.50;99.90
3709;DHT22;1870;53.996;10.784;2023-07-16T03:26:48;20.50;99.90
3709;DHT22;1870;53.996;10.784;2023-07-16T03:29:14;20.50;99.90
3709;DHT22;1870;53.996;10.784;2023-07-16T03:31:39;20.50;99.90
3709;DHT22;1870;53.996;10.784;2023-07-16T03:34:05;20.50;99.90
3709;DHT22;1870;53.996;10.784;2023-07-16T03:36:30;20.50;99.90
3709;DHT22;1870;53.996;10.784;2023-07-16T03:38:56;20.50;99.90
3709;DHT22;1870;53.996;10.784;2023-07-16T03:41:21;20.50;99.90
3709;DHT22;1870;53.996;10.784;2023-07-16T03:43:47;20.50;99.90
3709;DHT22;1870;53.996;10.784;2023-07-16T03:46:12;20.60;99.90
3709;DHT22;1870;53.996;10.784;2023-07-16T03:48:38;20.50;99.90
3709;DHT22;1870;53.996;10.784;2023-07-16T03:51:03;20.50;99.90
3709;DHT22;1870;53.996;10.784;2023-07-16T03:53:29;20.60;99.90
3709;DHT22;1870;53.996;10.784;2023-07-16T03:55:54;20.60;99.90
3709;DHT22;1870;53.996;10.784;2023-07-16T03:58:20;20.60;99.90
3709;DHT22;1870;53.996;10.784;2023-07-16T04:00:45;20.60;99.90
3709;DHT22;1870;53.996;10.784;2023-07-16T04:03:11;20.50;99.90
3709;DHT22;1870;53.996;10.784;2023-07-16T04:05:36;20.40;99.90
3709;DHT22;1870;53.996;10.784;2023-07-16T04:08:02;20.50;99.90
3709;DHT22;1870;53.996;10.784;2023-07-16T04:10:28;20.40;99.90
3709;DHT22;1870;53.996;10.784;2023-07-16T04:12:53;20.50;99.90
3709;DHT22;1870;53.996;10.784;2023-07-16T04:15:18;20.50;99.90
3709;DHT22;1870;53.996;10.784;2023-07-16T04:17:44;20.50;99.90
3709;DHT22;1870;53.996;10.784;2023-07-16T04:20:10;20.60;99.90
3709;DHT22;1870;53.996;10.784;2023-07-16T04:22:36;20.50;99.90
3709;DHT22;1870;53.996;10.784;2023-07-16T04:25:02;20.50;99.90
3709;DHT22;1870;53.996;10.784;2023-07-16T04:27:29;20.30;99.90
3709;DHT22;1870;53.996;10.784;2023-07-16T04:29:54;20.30;99.90
3709;DHT22;1870;53.996;10.784;2023-07-16T04:32:20;20.20;99.90
3709;DHT22;1870;53.996;10.784;2023-07-16T04:34:45;20.30;99.90
3709;DHT22;1870;53.996;10.784;2023-07-16T04:37:11;20.30;99.90
3709;DHT22;1870;53.996;10.784;2023-07-16T04:39:36;20.40;99.90
3709;DHT22;1870;53.996;10.784;2023-07-16T04:42:02;20.50;99.90
3709;DHT22;1870;53.996;10.784;2023-07-16T04:44:27;20.50;99.90
3709;DHT22;1870;53.996;10.784;2023-07-16T04:46:53;20.60;99.90
3709;DHT22;1870;53.996;10.784;2023-07-16T04:49:18;20.60;99.90
3709;DHT22;1870;53.996;10.784;2023-07-16T04:51:44;20.60;99.90
3709;DHT22;1870;53.996;10.784;2023-07-16T04:54:09;20.70;99.90
3709;DHT22;1870;53.996;10.784;2023-07-16T04:56:35;20.60;99.90
3709;DHT22;1870;53.996;10.784;2023-07-16T04:59:01;20.90;99.90
3709;DHT22;1870;53.996;10.784;2023-07-16T05:01:26;20.80;99.90
3709;DHT22;1870;53.996;10.784;2023-07-16T05:03:52;20.80;99.90
3709;DHT22;1870;53.996;10.784;2023-07-16T05:06:17;20.80;99.90
3709;DHT22;1870;53.996;10.784;2023-07-16T05:08:43;20.90;99.90
3709;DHT22;1870;53.996;10.784;2023-07-16T05:11:09;20.80;99.90
3709;DHT22;1870;53.996;10.784;2023-07-16T05:13:34;20.70;99.90
3709;DHT22;1870;53.996;10.784;2023-07-16T05:16:00;20.80;99.90
3709;DHT22;1870;53.996;10.784;2023-07-16T05:18:25;20.90;99.90
3709;DHT22;1870;53.996;10.784;2023-07-16T05:20:51;20.90;99.90
3709;DHT22;1870;53.996;10.784;2023-07-16T05:23:16;21.00;99.90
3709;DHT22;1870;53.996;10.784;2023-07-16T05:25:45;21.00;99.90
3709;DHT22;1870;53.996;10.784;2023-07-16T05:28:11;21.10;99.90
3709;DHT22;1870;53.996;10.784;2023-07-16T05:30:36;21.10;99.90
3709;DHT22;1870;53.996;10.784;2023-07-16T05:33:02;20.90;99.90
3709;DHT22;1870;53.996;10.784;2023-07-16T05:35:27;20.50;99.90
3709;DHT22;1870;53.996;10.784;2023-07-16T05:37:53;20.60;99.90
3709;DHT22;1870;53.996;10.784;2023-07-16T05:40:18;20.40;99.90
3709;DHT22;1870;53.996;10.784;2023-07-16T05:42:44;20.40;99.90
3709;DHT22;1870;53.996;10.784;2023-07-16T05:45:09;20.50;99.90
3709;DHT22;1870;53.996;10.784;2023-07-16T05:47:35;20.40;99.90
3709;DHT22;1870;53.996;10.784;2023-07-16T05:50:01;20.30;99.90
3709;DHT22;1870;53.996;10.784;2023-07-16T05:52:26;20.30;99.90
3709;DHT22;1870;53.996;10.784;2023-07-16T05:54:52;20.40;99.90
3709;DHT22;1870;53.996;10.784;2023-07-16T05:57:17;20.50;99.90
3709;DHT22;1870;53.996;10.784;2023-07-16T05:59:43;20.50;99.90
3709;DHT22;1870;53.996;10.784;2023-07-16T06:02:08;20.50;99.90
3709;DHT22;1870;53.996;10.784;2023-07-16T06:04:34;20.70;99.90
3709;DHT22;1870;53.996;10.784;2023-07-16T06:06:59;20.60;99.90
3709;DHT22;1870;53.996;10.784;2023-07-16T06:09:25;20.60;99.90
3709;DHT22;1870;53.996;10.784;2023-07-16T06:11:50;20.50;99.90
3709;DHT22;1870;53.996;10.784;2023-07-16T06:14:16;20.50;99.90
3709;DHT22;1870;53.996;10.784;2023-07-16T06:16:42;20.60;99.90
3709;DHT22;1870;53.996;10.784;2023-07-16T06:19:07;20.70;99.90
3709;DHT22;1870;53.996;10.784;2023-07-16T06:21:33;20.70;99.90
3709;DHT22;1870;53.996;10.784;2023-07-16T06:23:58;20.80;99.90
3709;DHT22;1870;53.996;10.784;2023-07-16T06:26:24;20.80;99.90
3709;DHT22;1870;53.996;10.784;2023-07-16T06:28:49;20.90;99.90
3709;DHT22;1870;53.996;10.784;2023-07-16T06:31:16;21.00;99.90
3709;DHT22;1870;53.996;10.784;2023-07-16T06:33:41;20.90;99.90
3709;DHT22;1870;53.996;10.784;2023-07-16T06:36:07;21.00;99.90
3709;DHT22;1870;53.996;10.784;2023-07-16T06:38:32;20.90;99.90
3709;DHT22;1870;53.996;10.784;2023-07-16T06:40:58;20.90;99.90
3709;DHT22;1870;53.996;10.784;2023-07-16T06:43:23;20.90;99.90
3709;DHT22;1870;53.996;10.784;2023-07-16T06:45:49;20.90;99.90
3709;DHT22;1870;53.996;10.784;2023-07-16T06:48:16;21.00;99.90
3709;DHT22;1870;53.996;10.784;2023-07-16T06:50:42;21.00;99.90
3709;DHT22;1870;53.996;10.784;2023-07-16T06:53:07;21.00;99.90
3709;DHT22;1870;53.996;10.784;2023-07-16T06:55:33;21.00;99.90
3709;DHT22;1870;53.996;10.784;2023-07-16T06:57:59;21.10;99.90
3709;DHT22;1870;53.996;10.784;2023-07-16T07:00:25;21.10;99.90
3709;DHT22;1870;53.996;10.784;2023-07-16T07:02:51;21.20;99.90
3709;DHT22;1870;53.996;10.784;2023-07-16T07:05:16;21.20;99.90
3709;DHT22;1870;53.996;10.784;2023-07-16T07:07:42;21.20;99.90
3709;DHT22;1870;53.996;10.784;2023-07-16T07:10:08;21.30;99.90
3709;DHT22;1870;53.996;10.784;2023-07-16T07:12:34;21.30;99.90
3709;DHT22;1870;53.996;10.784;2023-07-16T07:15:03;21.40;99.90
3709;DHT22;1870;53.996;10.784;2023-07-16T07:17:29;21.50;99.90
3709;DHT22;1870;53.996;10.784;2023-07-16T07:19:54;21.60;99.90
3709;DHT22;1870;53.996;10.784;2023-07-16T07:22:20;21.70;99.90
3709;DHT22;1870;53.996;10.784;2023-07-16T07:24:45;21.90;99.90
3709;DHT22;1870;53.996;10.784;2023-07-16T07:27:11;22.00;99.90
3709;DHT22;1870;53.996;10.784;2023-07-16T07:29:36;22.20;99.90
3709;DHT22;1870;53.996;10.784;2023-07-16T07:32:02;22.30;99.90
3709;DHT22;1870;53.996;10.784;2023-07-16T07:34:27;22.40;99.90
3709;DHT22;1870;53.996;10.784;2023-07-16T07:36:53;22.50;99.90
3709;DHT22;1870;53.996;10.784;2023-07-16T07:39:18;22.60;99.90
3709;DHT22;1870;53.996;10.784;2023-07-16T07:41:44;22.50;99.90
3709;DHT22;1870;53.996;10.784;2023-07-16T07:44:09;22.40;99.90
3709;DHT22;1870;53.996;10.784;2023-07-16T07:46:35;22.50;99.90
3709;DHT22;1870;53.996;10.784;2023-07-16T07:49:00;22.50;99.90
3709;DHT22;1870;53.996;10.784;2023-07-16T07:51:26;22.60;99.90
3709;DHT22;1870;53.996;10.784;2023-07-16T07:53:51;22.60;99.90
3709;DHT22;1870;53.996;10.784;2023-07-16T07:56:17;22.60;99.90
3709;DHT22;1870;53.996;10.784;2023-07-16T07:58:42;22.60;99.90
3709;DHT22;1870;53.996;10.784;2023-07-16T08:01:08;22.60;99.90
3709;DHT22;1870;53.996;10.784;2023-07-16T08:03:34;22.70;99.90
3709;DHT22;1870;53.996;10.784;2023-07-16T08:06:00;22.80;99.90
3709;DHT22;1870;53.996;10.784;2023-07-16T08:08:25;22.80;99.90
3709;DHT22;1870;53.996;10.784;2023-07-16T08:10:51;22.90;99.90
3709;DHT22;1870;53.996;10.784;2023-07-16T08:13:16;22.90;99.90
3709;DHT22;1870;53.996;10.784;2023-07-16T08:15:42;22.90;99.90
3709;DHT22;1870;53.996;10.784;2023-07-16T08:18:07;22.90;99.90
3709;DHT22;1870;53.996;10.784;2023-07-16T08:20:35;22.80;99.90
3709;DHT22;1870;53.996;10.784;2023-07-16T08:23:00;22.90;99.90
3709;DHT22;1870;53.996;10.784;2023-07-16T08:25:26;23.10;99.90
3709;DHT22;1870;53.996;10.784;2023-07-16T08:27:52;23.20;99.90
3709;DHT22;1870;53.996;10.784;2023-07-16T08:30:17;23.30;99.90
3709;DHT22;1870;53.996;10.784;2023-07-16T08:32:43;23.30;99.90
3709;DHT22;1870;53.996;10.784;2023-07-16T08:35:08;23.40;99.90
3709;DHT22;1870;53.996;10.784;2023-07-16T08:37:41;23.40;99.90
3709;DHT22;1870;53.996;10.784;2023-07-16T08:40:06;23.60;99.90
3709;DHT22;1870;53.996;10.784;2023-07-16T08:42:32;23.60;99.90
3709;DHT22;1870;53.996;10.784;2023-07-16T08:44:57;23.50;99.90
3709;DHT22;1870;53.996;10.784;2023-07-16T08:47:23;23.50;99.90
3709;DHT22;1870;53.996;10.784;2023-07-16T08:49:57;23.60;99.90
3709;DHT22;1870;53.996;10.784;2023-07-16T08:52:23;23.50;99.90
3709;DHT22;1870;53.996;10.784;2023-07-16T08:54:49;23.50;99.90
3709;DHT22;1870;53.996;10.784;2023-07-16T08:57:14;23.50;99.90
3709;DHT22;1870;53.996;10.784;2023-07-16T08:59:40;23.50;99.90
3709;DHT22;1870;53.996;10.784;2023-07-16T09:02:06;23.80;99.90
3709;DHT22;1870;53.996;10.784;2023-07-16T09:04:32;24.00;99.90
3709;DHT22;1870;53.996;10.784;2023-07-16T09:06:57;24.20;99.90
3709;DHT22;1870;53.996;10.784;2023-07-16T09:09:23;24.20;99.90
3709;DHT22;1870;53.996;10.784;2023-07-16T09:11:49;24.20;99.90
3709;DHT22;1870;53.996;10.784;2023-07-16T09:14:18;24.10;99.90
3709;DHT22;1870;53.996;10.784;2023-07-16T09:16:47;24.10;99.90
3709;DHT22;1870;53.996;10.784;2023-07-16T09:19:12;24.00;99.90
3709;DHT22;1870;53.996;10.784;2023-07-16T09:21:40;23.90;99.90
3709;DHT22;1870;53.996;10.784;2023-07-16T09:24:07;23.80;99.90
3709;DHT22;1870;53.996;10.784;2023-07-16T09:26:32;23.80;99.90
3709;DHT22;1870;53.996;10.784;2023-07-16T09:28:58;23.80;99.90
3709;DHT22;1870;53.996;10.784;2023-07-16T09:31:23;23.80;99.90
3709;DHT22;1870;53.996;10.784;2023-07-16T09:33:49;23.70;99.90
3709;DHT22;1870;53.996;10.784;2023-07-16T09:36:22;23.70;99.90
3709;DHT22;1870;53.996;10.784;2023-07-16T09:38:48;23.70;99.90
3709;DHT22;1870;53.996;10.784;2023-07-16T09:41:14;23.80;99.90
3709;DHT22;1870;53.996;10.784;2023-07-16T09:43:39;24.10;99.90
3709;DHT22;1870;53.996;10.784;2023-07-16T09:46:06;24.20;99.90
3709;DHT22;1870;53.996;10.784;2023-07-16T09:48:31;24.50;99.90
3709;DHT22;1870;53.996;10.784;2023-07-16T09:50:57;24.70;99.90
3709;DHT22;1870;53.996;10.784;2023-07-16T09:53:23;24.40;99.90
3709;DHT22;1870;53.996;10.784;2023-07-16T09:55:49;24.20;99.90
3709;DHT22;1870;53.996;10.784;2023-07-16T09:58:17;24.00;99.90
3709;DHT22;1870;53.996;10.784;2023-07-16T10:00:44;24.00;99.90
3709;DHT22;1870;53.996;10.784;2023-07-16T10:03:11;23.80;99.90
3709;DHT22;1870;53.996;10.784;2023-07-16T10:05:37;23.80;99.90
3709;DHT22;1870;53.996;10.784;2023-07-16T10:08:03;23.90;99.90
3709;DHT22;1870;53.996;10.784;2023-07-16T10:13:23;24.00;99.90
3709;DHT22;1870;53.996;10.784;2023-07-16T10:18:29;23.90;99.90
3709;DHT22;1870;53.996;10.784;2023-07-16T10:21:08;23.90;99.90
3709;DHT22;1870;53.996;10.784;2023-07-16T10:23:40;24.00;99.90
3709;DHT22;1870;53.996;10.784;2023-07-16T10:26:06;24.30;99.90
3709;DHT22;1870;53.996;10.784;2023-07-16T10:28:33;24.30;99.90
3709;DHT22;1870;53.996;10.784;2023-07-16T10:30:59;24.40;99.90
3709;DHT22;1870;53.996;10.784;2023-07-16T10:33:25;24.30;99.90
3709;DHT22;1870;53.996;10.784;2023-07-16T10:35:50;24.40;99.90
3709;DHT22;1870;53.996;10.784;2023-07-16T10:38:16;24.50;99.90
3709;DHT22;1870;53.996;10.784;2023-07-16T10:40:42;24.50;99.90
3709;DHT22;1870;53.996;10.784;2023-07-16T10:43:08;24.60;99.90
3709;DHT22;1870;53.996;10.784;2023-07-16T10:45:33;24.70;99.90
3709;DHT22;1870;53.996;10.784;2023-07-16T10:47:59;24.80;99.90
3709;DHT22;1870;53.996;10.784;2023-07-16T10:50:25;25.00;99.90
3709;DHT22;1870;53.996;10.784;2023-07-16T10:52:54;25.20;99.90
3709;DHT22;1870;53.996;10.784;2023-07-16T10:55:20;25.20;99.90
3709;DHT22;1870;53.996;10.784;2023-07-16T10:57:49;25.20;99.90
3709;DHT22;1870;53.996;10.784;2023-07-16T11:00:15;25.20;99.90
3709;DHT22;1870;53.996;10.784;2023-07-16T11:02:42;25.10;99.90
3709;DHT22;1870;53.996;10.784;2023-07-16T11:05:12;25.00;99.90
3709;DHT22;1870;53.996;10.784;2023-07-16T11:07:38;24.90;99.90
3709;DHT22;1870;53.996;10.784;2023-07-16T11:10:03;24.70;99.90
3709;DHT22;1870;53.996;10.784;2023-07-16T11:12:29;24.60;99.90
3709;DHT22;1870;53.996;10.784;2023-07-16T11:14:55;24.30;99.90
3709;DHT22;1870;53.996;10.784;2023-07-16T11:17:21;24.10;99.90
3709;DHT22;1870;53.996;10.784;2023-07-16T11:19:53;24.10;99.90
3709;DHT22;1870;53.996;10.784;2023-07-16T11:22:18;24.20;99.90
3709;DHT22;1870;53.996;10.784;2023-07-16T11:24:45;24.30;99.90
3709;DHT22;1870;53.996;10.784;2023-07-16T11:27:14;24.50;99.90
3709;DHT22;1870;53.996;10.784;2023-07-16T11:29:44;24.60;99.90
3709;DHT22;1870;53.996;10.784;2023-07-16T11:32:10;24.80;99.90
3709;DHT22;1870;53.996;10.784;2023-07-16T11:34:35;24.90;99.90
3709;DHT22;1870;53.996;10.784;2023-07-16T11:37:08;25.00;99.90
3709;DHT22;1870;53.996;10.784;2023-07-16T11:39:34;24.90;99.90
3709;DHT22;1870;53.996;10.784;2023-07-16T11:41:59;25.00;99.90
3709;DHT22;1870;53.996;10.784;2023-07-16T11:44:31;25.00;99.90
3709;DHT22;1870;53.996;10.784;2023-07-16T11:46:58;25.10;99.90
3709;DHT22;1870;53.996;10.784;2023-07-16T11:49:23;25.10;99.90
3709;DHT22;1870;53.996;10.784;2023-07-16T11:51:49;25.20;99.90
3709;DHT22;1870;53.996;10.784;2023-07-16T11:54:14;25.20;99.90
3709;DHT22;1870;53.996;10.784;2023-07-16T11:56:40;25.20;99.90
3709;DHT22;1870;53.996;10.784;2023-07-16T11:59:05;25.20;99.90
3709;DHT22;1870;53.996;10.784;2023-07-16T12:01:31;25.30;99.90
3709;DHT22;1870;53.996;10.784;2023-07-16T12:03:56;25.40;99.90
3709;DHT22;1870;53.996;10.784;2023-07-16T12:06:22;25.40;99.90
3709;DHT22;1870;53.996;10.784;2023-07-16T12:08:47;25.40;99.90
3709;DHT22;1870;53.996;10.784;2023-07-16T12:11:13;25.40;99.90
3709;DHT22;1870;53.996;10.784;2023-07-16T12:13:38;25.40;99.90
3709;DHT22;1870;53.996;10.784;2023-07-16T12:16:04;25.60;99.90
3709;DHT22;1870;53.996;10.784;2023-07-16T12:18:30;25.70;99.90
3709;DHT22;1870;53.996;10.784;2023-07-16T12:20:56;25.80;99.90
3709;DHT22;1870;53.996;10.784;2023-07-16T12:23:22;25.90;99.90
3709;DHT22;1870;53.996;10.784;2023-07-16T12:25:47;26.00;99.90
3709;DHT22;1870;53.996;10.784;2023-07-16T12:28:13;26.10;99.90
3709;DHT22;1870;53.996;10.784;2023-07-16T12:30:39;26.10;99.90
3709;DHT22;1870;53.996;10.784;2023-07-16T12:33:04;26.30;99.90
3709;DHT22;1870;53.996;10.784;2023-07-16T12:35:30;26.10;99.90
3709;DHT22;1870;53.996;10.784;2023-07-16T12:37:56;26.20;99.90
3709;DHT22;1870;53.996;10.784;2023-07-16T12:40:23;26.10;99.90
3709;DHT22;1870;53.996;10.784;2023-07-16T12:42:49;26.10;99.90
3709;DHT22;1870;53.996;10.784;2023-07-16T12:45:14;26.10;99.90
3709;DHT22;1870;53.996;10.784;2023-07-16T12:47:40;26.10;99.90
3709;DHT22;1870;53.996;10.784;2023-07-16T12:50:07;26.00;99.90
3709;DHT22;1870;53.996;10.784;2023-07-16T12:52:33;26.20;99.90
3709;DHT22;1870;53.996;10.784;2023-07-16T12:54:58;26.20;99.90
3709;DHT22;1870;53.996;10.784;2023-07-16T12:57:24;26.20;99.90
3709;DHT22;1870;53.996;10.784;2023-07-16T12:59:49;26.20;99.90
3709;DHT22;1870;53.996;10.784;2023-07-16T13:02:15;26.10;99.90
3709;DHT22;1870;53.996;10.784;2023-07-16T13:04:40;26.10;99.90
3709;DHT22;1870;53.996;10.784;2023-07-16T13:07:06;26.20;99.90
3709;DHT22;1870;53.996;10.784;2023-07-16T13:09:31;26.10;99.90
3709;DHT22;1870;53.996;10.784;2023-07-16T13:11:57;25.90;99.90
3709;DHT22;1870;53.996;10.784;2023-07-16T13:14:22;26.00;99.90
3709;DHT22;1870;53.996;10.784;2023-07-16T13:16:48;25.90;99.90
3709;DHT22;1870;53.996;10.784;2023-07-16T13:19:13;25.80;99.90
3709;DHT22;1870;53.996;10.784;2023-07-16T13:21:39;25.80;99.90
3709;DHT22;1870;53.996;10.784;2023-07-16T13:24:04;25.80;99.90
3709;DHT22;1870;53.996;10.784;2023-07-16T13:26:30;26.00;99.90
3709;DHT22;1870;53.996;10.784;2023-07-16T13:28:56;26.20;99.90
3709;DHT22;1870;53.996;10.784;2023-07-16T13:31:21;26.50;99.90
3709;DHT22;1870;53.996;10.784;2023-07-16T13:33:46;26.80;99.90
3709;DHT22;1870;53.996;10.784;2023-07-16T13:36:12;26.90;99.90
3709;DHT22;1870;53.996;10.784;2023-07-16T13:38:38;27.10;99.90
3709;DHT22;1870;53.996;10.784;2023-07-16T13:41:03;27.20;99.90
3709;DHT22;1870;53.996;10.784;2023-07-16T13:43:29;27.30;99.90
3709;DHT22;1870;53.996;10.784;2023-07-16T13:45:54;27.20;99.90
3709;DHT22;1870;53.996;10.784;2023-07-16T13:48:20;27.10;99.90
3709;DHT22;1870;53.996;10.784;2023-07-16T13:50:45;27.00;99.90
3709;DHT22;1870;53.996;10.784;2023-07-16T13:53:11;26.90;99.90
3709;DHT22;1870;53.996;10.784;2023-07-16T13:55:36;27.00;99.90
3709;DHT22;1870;53.996;10.784;2023-07-16T13:58:02;26.90;99.90
3709;DHT22;1870;53.996;10.784;2023-07-16T14:00:28;27.10;99.90
3709;DHT22;1870;53.996;10.784;2023-07-16T14:02:53;27.20;99.90
3709;DHT22;1870;53.996;10.784;2023-07-16T14:05:19;27.20;99.90
3709;DHT22;1870;53.996;10.784;2023-07-16T14:07:46;27.00;99.90
3709;DHT22;1870;53.996;10.784;2023-07-16T14:10:12;26.80;99.90
3709;DHT22;1870;53.996;10.784;2023-07-16T14:12:37;26.80;99.90
3709;DHT22;1870;53.996;10.784;2023-07-16T14:15:03;26.90;99.90
3709;DHT22;1870;53.996;10.784;2023-07-16T14:17:29;27.00;99.90
3709;DHT22;1870;53.996;10.784;2023-07-16T14:19:54;26.70;99.90
3709;DHT22;1870;53.996;10.784;2023-07-16T14:22:20;26.70;99.90
3709;DHT22;1870;53.996;10.784;2023-07-16T14:24:46;26.90;99.90
3709;DHT22;1870;53.996;10.784;2023-07-16T14:27:16;26.90;99.90
3709;DHT22;1870;53.996;10.784;2023-07-16T14:29:44;26.80;99.90
3709;DHT22;1870;53.996;10.784;2023-07-16T14:32:10;26.40;99.90
3709;DHT22;1870;53.996;10.784;2023-07-16T14:34:36;26.20;99.90
3709;DHT22;1870;53.996;10.784;2023-07-16T14:37:01;26.00;99.90
3709;DHT22;1870;53.996;10.784;2023-07-16T14:39:27;26.00;99.90
3709;DHT22;1870;53.996;10.784;2023-07-16T14:41:53;26.10;99.90
3709;DHT22;1870;53.996;10.784;2023-07-16T14:44:18;26.20;99.90
3709;DHT22;1870;53.996;10.784;2023-07-16T14:46:44;26.50;99.90
3709;DHT22;1870;53.996;10.784;2023-07-16T14:49:09;26.40;99.90
3709;DHT22;1870;53.996;10.784;2023-07-16T14:51:35;26.60;99.90
3709;DHT22;1870;53.996;10.784;2023-07-16T14:54:05;26.80;99.90
3709;DHT22;1870;53.996;10.784;2023-07-16T14:56:31;26.80;99.90
3709;DHT22;1870;53.996;10.784;2023-07-16T14:58:57;26.50;99.90
3709;DHT22;1870;53.996;10.784;2023-07-16T15:01:22;26.50;99.90
3709;DHT22;1870;53.996;10.784;2023-07-16T15:03:48;26.30;99.90
3709;DHT22;1870;53.996;10.784;2023-07-16T15:06:13;26.20;99.90
3709;DHT22;1870;53.996;10.784;2023-07-16T15:08:40;26.40;99.90
3709;DHT22;1870;53.996;10.784;2023-07-16T15:11:06;26.70;99.90
3709;DHT22;1870;53.996;10.784;2023-07-16T15:13:31;26.80;99.90
3709;DHT22;1870;53.996;10.784;2023-07-16T15:15:57;26.80;99.90
3709;DHT22;1870;53.996;10.784;2023-07-16T15:18:23;27.00;99.90
3709;DHT22;1870;53.996;10.784;2023-07-16T15:20:54;27.10;99.90
3709;DHT22;1870;53.996;10.784;2023-07-16T15:23:20;27.00;99.90
3709;DHT22;1870;53.996;10.784;2023-07-16T15:25:45;26.70;99.90
3709;DHT22;1870;53.996;10.784;2023-07-16T15:28:11;26.60;99.90
3709;DHT22;1870;53.996;10.784;2023-07-16T15:30:37;26.10;99.90
3709;DHT22;1870;53.996;10.784;2023-07-16T15:33:02;26.00;99.90
3709;DHT22;1870;53.996;10.784;2023-07-16T15:35:28;25.90;99.90
3709;DHT22;1870;53.996;10.784;2023-07-16T15:37:53;25.80;99.90
3709;DHT22;1870;53.996;10.784;2023-07-16T15:40:22;25.70;99.90
3709;DHT22;1870;53.996;10.784;2023-07-16T15:42:47;25.70;99.90
3709;DHT22;1870;53.996;10.784;2023-07-16T15:45:13;26.40;99.90